

Wyoming Mesonet
Water Resources Data System and State Climate Office
SEO WACNet, UW USACE UMRB, USDA-ARS, BLM
| Wind | Soil | |||||||||||||||||||
| Temp | Precip | Speed | Dir | Gust | Dir | Humidity | Pressure | Solar | Snow | Temperature (Deg F) | Moisture (%) | |||||||||
| Date Time (MST) | (F) | (in) | (mph) | (deg) | (mph) | (deg) | (%) | (Mbars) | (w/m^2) | (in) | 5cm | 10cm | 20cm | 50cm | 1m | 5cm | 10cm | 20cm | 50cm | 1m |
| 2026-08-30 00:00:00 | 68.58 | 0.00 | 14.66 | 309 | 21.99 | 305 | 48.8 | 866.0 | 0.0 | -0.3 | 75.20 | 76.10 | 77.00 | 32.00 | 67.82 | 15.4% | 14.5% | 8.1% | 0.0% | 7.2% |
| 2026-08-30 01:00:00 | 65.62 | 0.00 | 5.27 | 284 | 21.12 | 308 | 55.0 | 867.0 | 0.0 | -0.3 | 74.48 | 75.20 | 76.64 | 32.00 | 68.00 | 15.4% | 14.3% | 8.1% | 0.0% | 7.2% |
| 2026-08-30 02:00:00 | 65.89 | 0.00 | 7.39 | 323 | 17.02 | 292 | 56.1 | 867.0 | 0.0 | -0.3 | 73.76 | 74.66 | 76.28 | 32.00 | 68.00 | 15.3% | 14.2% | 8.1% | 0.0% | 7.2% |
| 2026-08-30 03:00:00 | 64.20 | 0.00 | 1.93 | 77 | 13.29 | 317 | 58.7 | 867.0 | 0.0 | -0.3 | 73.22 | 74.12 | 76.10 | 32.00 | 67.82 | 15.3% | 14.1% | 8.0% | 0.0% | 7.2% |
| 2026-08-30 04:00:00 | 62.58 | 0.00 | 0.78 | 177 | 6.83 | 69 | 60.4 | 867.0 | 0.0 | -0.3 | 72.50 | 73.40 | 75.74 | 32.00 | 68.00 | 15.2% | 14.1% | 8.0% | 0.0% | 7.2% |
| 2026-08-30 05:00:00 | 59.23 | 0.00 | 3.22 | 179 | 6.09 | 147 | 68.9 | 868.0 | 0.0 | -0.4 | 71.96 | 72.86 | 75.20 | 32.00 | 68.00 | 15.2% | 14.0% | 7.9% | 0.0% | 7.2% |
| 2026-08-30 06:00:00 | 59.50 | 0.00 | 0.00 | 0 | 4.35 | 202 | 74.2 | 868.0 | 35.0 | -0.2 | 71.06 | 72.32 | 75.02 | 32.00 | 68.00 | 15.2% | 13.8% | 8.0% | 0.0% | 7.2% |
| 2026-08-30 07:00:00 | 61.54 | 0.00 | 0.21 | 191 | 7.21 | 88 | 67.0 | 869.0 | 124.9 | -0.3 | 70.52 | 71.60 | 74.66 | 32.00 | 68.00 | 15.2% | 13.8% | 7.9% | 0.0% | 7.2% |
| 2026-08-30 08:00:00 | 67.23 | 0.00 | 6.16 | 167 | 8.32 | 171 | 58.0 | 869.0 | 502.7 | -0.1 | 70.16 | 71.06 | 74.30 | 32.00 | 68.00 | 15.1% | 13.7% | 7.9% | 0.0% | 7.2% |
| 2026-08-30 09:00:00 | 73.99 | 0.00 | 1.05 | 120 | 9.19 | 204 | 45.0 | 869.0 | 709.9 | -0.2 | 70.70 | 71.06 | 73.76 | 32.00 | 67.82 | 15.1% | 13.6% | 7.9% | 0.0% | 7.2% |
| 2026-08-30 10:00:00 | 77.95 | 0.00 | 6.18 | 190 | 13.17 | 177 | 39.5 | 869.0 | 786.6 | -0.2 | 72.14 | 72.14 | 73.58 | 32.00 | 68.00 | 15.2% | 13.7% | 7.8% | 0.0% | 7.2% |
| 2026-08-30 11:00:00 | 80.87 | 0.00 | 10.30 | 256 | 20.74 | 279 | 32.1 | 868.0 | 871.0 | -0.1 | 74.30 | 73.58 | 73.40 | 32.00 | 67.82 | 15.2% | 13.7% | 7.8% | 0.0% | 7.2% |
| 2026-08-30 12:00:00 | 83.89 | 0.00 | 17.88 | 284 | 26.22 | 279 | 21.2 | 868.0 | 604.9 | -0.1 | 76.82 | 75.74 | 73.40 | 32.00 | 68.00 | 15.2% | 13.9% | 7.8% | 0.0% | 7.2% |
| 2026-08-30 13:00:00 | 86.38 | 0.00 | 18.19 | 274 | 26.57 | 276 | 20.6 | 868.0 | 789.7 | -0.2 | 78.62 | 77.54 | 73.94 | 32.00 | 68.00 | 15.2% | 14.0% | 7.8% | 0.0% | 7.2% |
| 2026-08-30 14:00:00 | 87.67 | 0.00 | 21.45 | 280 | 33.17 | 285 | 18.0 | 867.0 | 789.2 | -0.2 | 80.24 | 78.98 | 74.30 | 32.00 | 68.00 | 15.3% | 14.1% | 7.8% | 0.0% | 7.2% |
| 2026-08-30 15:00:00 | 72.50 | 0.00 | 36.44 | 8 | 47.58 | 11 | 49.7 | 868.0 | 327.6 | -0.3 | 81.14 | 79.70 | 74.84 | 32.00 | 68.00 | 15.3% | 14.0% | 7.8% | 0.0% | 7.2% |
| 2026-08-30 16:00:00 | 66.09 | 0.00 | 23.53 | 16 | 43.98 | 351 | 57.0 | 869.0 | 170.1 | -0.1 | 80.60 | 79.88 | 75.38 | 32.00 | 68.00 | 15.3% | 13.9% | 7.8% | 0.0% | 7.2% |
| 2026-08-30 17:00:00 | 65.84 | 0.00 | 23.33 | 27 | 33.53 | 5 | 54.2 | 870.0 | 286.6 | -0.2 | 79.34 | 79.34 | 75.92 | 32.00 | 68.00 | 15.2% | 13.8% | 7.8% | 0.0% | 7.2% |
| 2026-08-30 18:00:00 | 66.27 | 0.00 | 12.29 | 10 | 25.34 | 30 | 53.3 | 869.0 | 101.6 | -0.2 | 78.44 | 78.62 | 76.10 | 32.00 | 68.00 | 15.2% | 13.7% | 7.8% | 0.0% | 7.2% |
| 2026-08-30 19:00:00 | 62.64 | 0.00 | 12.31 | 23 | 14.66 | 20 | 58.2 | 869.0 | 0.0 | -0.3 | 77.18 | 77.72 | 76.28 | 32.00 | 68.00 | 15.1% | 13.6% | 7.8% | 0.0% | 7.2% |
| 2026-08-30 20:00:00 | 58.59 | 0.00 | 12.37 | 7 | 13.42 | 6 | 65.4 | 869.0 | 0.0 | -0.3 | 75.74 | 76.82 | 76.28 | 32.00 | 68.00 | 15.1% | 13.5% | 7.9% | 0.0% | 7.2% |
| 2026-08-30 21:00:00 | 56.26 | 0.00 | 13.65 | 350 | 16.65 | 355 | 70.8 | 869.0 | 0.0 | -0.3 | 74.48 | 75.74 | 76.10 | 32.00 | 68.00 | 15.0% | 13.4% | 7.7% | 0.0% | 7.2% |
| 2026-08-30 22:00:00 | 57.16 | 0.00 | 12.69 | 359 | 16.27 | 352 | 67.0 | 870.0 | 0.0 | -0.3 | 73.40 | 74.84 | 75.92 | 32.00 | 68.00 | 15.0% | 13.2% | 7.7% | 0.0% | 7.2% |
| 2026-08-30 23:00:00 | 56.71 | 0.00 | 13.98 | 2 | 15.16 | 0 | 64.0 | 870.0 | 0.0 | -0.3 | 72.32 | 73.76 | 75.74 | 32.00 | 68.00 | 14.9% | 13.2% | 7.8% | 0.0% | 7.2% |